KFOT

Details ICAO KFOT
Name Rohnerville
Region United States
Timezone America/Los_Angeles (UTC-8.0)
Plans Departing 5
Arriving 4
Stats Elevation 392 ft / 119 m (AMSL)
Location 40.553935° -124.132660°
Runways 1
Magnetic Variation 14.367° E
Sunrise 2017-12-10 15:30:52 UTC / 2017-12-10 07:30:52 Local
Sunset 2017-12-11 00:51:02 UTC / 2017-12-10 16:51:02 Local
Advertisement - Login to hide

Runways

ID Width Length Bearing (true) Bearing (mag) Surface Threshold Offset Overrun Length
11 100 ft / 30 m 4,002 ft / 1,220 m 127.60° 113.23° Asphalt 0 ft / 0 m 0 ft / 0 m
29 100 ft / 30 m 4,002 ft / 1,220 m 307.61° 293.24° Asphalt 0 ft / 0 m 0 ft / 0 m

Map

Weather


0- 5 10 15 20 25 30 35+ Temperature / ° C

Clouds and Precipitation
Forecast for 2017-12-11 06:00 UTC. Updated an hour ago

Ground ~20,000 ft ~40,000 ft Winds

METAR

KFOT 110355Z AUTO 14010KT 10SM CLR 08/06 A3021 RMK AO1

TAF

Not found

Frequencies

Unicom 122.90 MHz CTAF
Warning: Do not use this data for real-world aviation or navigation. No guarantee of current accuracy is given.